createdAt,value
2022-08-14T00:01:55.741Z,44
2022-08-14T00:21:55.545Z,44
2022-08-14T00:42:56.144Z,46
2022-08-14T01:02:09.734Z,46
2022-08-14T01:21:53.974Z,46
2022-08-14T01:41:55.929Z,47
2022-08-14T02:02:19.752Z,47
2022-08-14T02:22:15.319Z,47
2022-08-14T02:42:37.686Z,48
2022-08-14T03:01:55.229Z,48
2022-08-14T03:21:53.280Z,49
2022-08-14T03:42:19.798Z,48
2022-08-14T04:22:07.069Z,50
2022-08-14T04:42:14.948Z,50
2022-08-14T05:01:57.056Z,49
2022-08-14T05:23:50.311Z,50
2022-08-14T05:42:34.818Z,50
2022-08-14T06:01:51.976Z,51
2022-08-14T06:21:59.619Z,51
2022-08-14T06:42:41.517Z,51
2022-08-14T08:22:12.983Z,49
2022-08-14T09:42:50.002Z,47
2022-08-14T10:01:53.419Z,48
2022-08-14T10:23:15.702Z,48
2022-08-14T10:42:21.369Z,48
2022-08-14T11:02:17.742Z,48
2022-08-14T11:21:47.806Z,48
2022-08-14T12:03:04.741Z,50
2022-08-14T12:22:32.337Z,49
2022-08-14T12:42:36.421Z,51
2022-08-14T13:02:55.683Z,50
2022-08-14T13:22:09.999Z,50
2022-08-14T13:41:57.742Z,50
2022-08-14T14:02:52.262Z,50
2022-08-14T14:21:50.761Z,50
2022-08-14T14:42:57.131Z,50
2022-08-14T15:01:47.983Z,50
2022-08-14T15:21:50.893Z,50
2022-08-14T15:42:16.990Z,49
2022-08-14T16:02:02.952Z,50
2022-08-14T16:22:57.773Z,51
2022-08-14T17:02:42.239Z,51
2022-08-14T17:22:49.218Z,52
2022-08-14T18:01:56.487Z,53
2022-08-14T18:24:30.140Z,54
2022-08-14T18:42:24.269Z,55
2022-08-14T19:02:21.188Z,56
2022-08-14T19:22:38.361Z,55
2022-08-14T19:41:56.947Z,57
2022-08-14T20:02:37.846Z,57
2022-08-14T20:22:35.934Z,57
2022-08-14T21:02:30.298Z,58
2022-08-14T21:22:56.736Z,59
2022-08-14T21:41:59.345Z,56
2022-08-14T22:02:33.454Z,56
2022-08-14T22:22:32.353Z,55
2022-08-14T22:43:36.193Z,54
2022-08-14T23:01:58.352Z,54
2022-08-14T23:21:49.450Z,54
2022-08-14T23:42:40.654Z,54
